Time;durP1;ratioP1;P1;durP2;ratioP2;P2;SDS_P1;SDS_P2;PMS_P1;PMS_P2;Temp;Humidity;BMP_temperature;BMP_pressure;BME280_temperature;BME280_humidity;BME280_pressure;Samples;Min_cycle;Max_cycle;Signal;HPM_P1;HPM_P2
2022/05/19 00:04:29;;;;;;;5.68;2.47;;;21.70;99.90;;;;;;12493955;28;20048;-78
2022/05/19 00:10:32;;;;;;;5.70;2.25;;;21.60;99.90;;;;;;12512846;28;20091;-79
2022/05/19 00:16:34;;;;;;;3.78;2.20;;;21.40;99.90;;;;;;12520268;28;20638;-79
2022/05/19 00:22:36;;;;;;;3.90;2.10;;;21.40;99.90;;;;;;12515474;28;20132;-79
2022/05/19 00:28:40;;;;;;;3.35;2.13;;;21.40;99.90;;;;;;12517215;28;20049;-79
2022/05/19 00:34:41;;;;;;;7.75;2.53;;;21.40;99.90;;;;;;12499560;28;20049;-81
2022/05/19 00:40:49;;;;;;;5.63;2.78;;;21.50;99.90;;;;;;12503234;28;20099;-79
2022/05/19 00:46:56;;;;;;;4.15;2.60;;;21.50;99.90;;;;;;12491067;28;20099;-79
2022/05/19 00:53:05;;;;;;;5.20;3.20;;;21.40;99.90;;;;;;12512050;28;20497;-79
2022/05/19 00:59:15;;;;;;;6.85;2.50;;;21.30;99.90;;;;;;12512694;28;20052;-80
2022/05/19 01:05:30;;;;;;;3.47;2.35;;;21.20;99.90;;;;;;12517609;28;20079;-79
2022/05/19 01:11:33;;;;;;;6.47;2.65;;;21.30;99.90;;;;;;12510760;28;20037;-79
2022/05/19 01:17:35;;;;;;;5.68;2.67;;;21.20;99.90;;;;;;12500299;28;20102;-78
2022/05/19 01:24:00;;;;;;;4.07;2.80;;;21.40;99.90;;;;;;12511808;28;24357;-79
2022/05/19 01:30:05;;;;;;;6.28;2.80;;;21.20;99.90;;;;;;12517571;28;20564;-80
2022/05/19 01:36:08;;;;;;;7.65;2.70;;;21.20;99.90;;;;;;12495696;28;20443;-80
2022/05/19 01:42:31;;;;;;;6.20;2.70;;;21.10;99.90;;;;;;12511044;28;20087;-79
2022/05/19 01:48:54;;;;;;;7.57;2.95;;;21.10;99.90;;;;;;12504489;28;20087;-79
2022/05/19 01:55:16;;;;;;;6.63;2.77;;;21.00;99.90;;;;;;12493498;28;20040;-78
2022/05/19 02:01:24;;;;;;;4.18;2.55;;;21.10;99.90;;;;;;12501045;28;20045;-79
2022/05/19 02:07:27;;;;;;;5.68;2.70;;;20.90;99.90;;;;;;12517182;28;20585;-80
2022/05/19 02:13:31;;;;;;;5.32;2.42;;;20.90;99.90;;;;;;12495348;28;20450;-80
2022/05/19 02:19:35;;;;;;;;;;;20.90;99.90;;;;;;12506506;28;20057;-79
2022/05/19 02:25:43;;;;;;;4.50;2.35;;;20.90;99.90;;;;;;12512469;28;19924;-79
2022/05/19 02:31:45;;;;;;;7.63;3.08;;;20.80;99.90;;;;;;12508617;28;20045;-79
2022/05/19 02:37:47;;;;;;;4.90;2.85;;;20.80;99.90;;;;;;12511549;28;20053;-79
2022/05/19 02:43:48;;;;;;;5.80;2.50;;;20.70;99.90;;;;;;12510899;28;20060;-79
2022/05/19 02:49:50;;;;;;;6.13;2.65;;;20.70;99.90;;;;;;12513389;28;20049;-79
2022/05/19 02:55:52;;;;;;;5.90;2.67;;;20.80;99.90;;;;;;12516051;28;20049;-78
2022/05/19 03:01:54;;;;;;;6.13;3.13;;;20.70;99.90;;;;;;12510513;28;20049;-80
2022/05/19 03:07:56;;;;;;;5.72;2.80;;;20.70;99.90;;;;;;12495828;28;20470;-80
2022/05/19 03:13:58;;;;;;;6.63;2.90;;;20.60;99.90;;;;;;12511143;28;20481;-81
2022/05/19 03:20:01;;;;;;;5.33;2.60;;;20.60;99.90;;;;;;12513002;28;20106;-79
2022/05/19 03:26:03;;;;;;;4.43;2.60;;;20.60;99.90;;;;;;12516930;28;20037;-79
2022/05/19 03:32:05;;;;;;;6.70;2.60;;;20.50;99.90;;;;;;12518275;28;20056;-80
2022/05/19 03:38:08;;;;;;;3.97;2.45;;;20.50;99.90;;;;;;12506107;28;20102;-79
2022/05/19 03:44:10;;;;;;;5.45;2.47;;;20.40;99.90;;;;;;12506611;28;20052;-81
2022/05/19 03:50:12;;;;;;;3.53;2.33;;;20.40;99.90;;;;;;12524947;28;20072;-80
2022/05/19 03:56:14;;;;;;;3.47;2.40;;;20.30;99.90;;;;;;12520628;28;20044;-80
2022/05/19 04:02:16;;;;;;;4.72;2.50;;;20.30;99.90;;;;;;12522920;28;20401;-79
2022/05/19 04:08:35;;;;;;;5.55;2.58;;;20.30;99.90;;;;;;12525489;28;20402;-80
2022/05/19 04:14:37;;;;;;;7.00;2.72;;;20.30;99.90;;;;;;12523534;28;20096;-79
2022/05/19 04:20:39;;;;;;;5.68;2.60;;;20.20;99.90;;;;;;12520835;28;20068;-79
2022/05/19 04:26:40;;;;;;;4.30;2.72;;;20.20;99.90;;;;;;12524274;28;20118;-79
2022/05/19 04:32:43;;;;;;;6.82;3.17;;;20.10;99.90;;;;;;12503235;28;20053;-81
2022/05/19 04:38:45;;;;;;;5.13;3.08;;;20.10;99.90;;;;;;12516528;28;20061;-79
2022/05/19 04:44:47;;;;;;;5.82;3.20;;;20.10;99.90;;;;;;12523558;28;20454;-80
2022/05/19 04:50:57;;;;;;;6.85;2.50;;;20.10;99.90;;;;;;12528023;28;20151;-81
2022/05/19 04:56:59;;;;;;;10.00;3.00;;;20.10;99.90;;;;;;12525516;28;20431;-81
2022/05/19 05:03:01;;;;;;;5.07;2.85;;;20.10;99.90;;;;;;12510177;28;20052;-80
2022/05/19 05:09:04;;;;;;;6.25;2.85;;;20.10;99.90;;;;;;12524528;28;20052;-80
2022/05/19 05:15:07;;;;;;;4.80;2.70;;;20.10;99.90;;;;;;12502481;28;20136;-78
2022/05/19 05:21:11;;;;;;;4.20;2.90;;;20.10;99.90;;;;;;12521487;28;20041;-82
2022/05/19 05:27:13;;;;;;;5.32;2.80;;;20.10;99.90;;;;;;12504765;28;20993;-79
2022/05/19 05:33:16;;;;;;;4.60;2.40;;;20.00;99.90;;;;;;12520215;28;20057;-80
2022/05/19 05:39:17;;;;;;;5.05;2.78;;;20.10;99.90;;;;;;12502059;28;20049;-79
2022/05/19 05:45:20;;;;;;;4.15;2.55;;;20.10;99.90;;;;;;12491703;28;20037;-81
2022/05/19 05:51:21;;;;;;;4.55;2.67;;;20.20;99.90;;;;;;12500700;28;20082;-80
2022/05/19 05:57:23;;;;;;;4.40;2.85;;;20.30;99.90;;;;;;12495367;28;20060;-83
2022/05/19 06:03:25;;;;;;;3.45;2.33;;;20.40;99.90;;;;;;12493088;28;20049;-78
2022/05/19 06:09:27;;;;;;;4.22;2.33;;;20.60;99.90;;;;;;12514588;28;20049;-80
2022/05/19 06:15:30;;;;;;;4.40;2.40;;;20.80;99.90;;;;;;12515846;28;20433;-83
2022/05/19 06:21:36;;;;;;;4.50;2.33;;;20.70;99.90;;;;;;12519335;28;20064;-79
2022/05/19 06:27:38;;;;;;;5.90;2.50;;;20.90;99.90;;;;;;12499107;28;20061;-79
2022/05/19 06:33:41;;;;;;;4.45;2.20;;;20.90;99.90;;;;;;12518252;28;20061;-81
2022/05/19 06:39:43;;;;;;;5.20;2.53;;;21.00;99.90;;;;;;12523114;28;20065;-79
2022/05/19 06:45:45;;;;;;;5.30;2.25;;;21.20;99.90;;;;;;12512597;28;20295;-81
2022/05/19 06:51:47;;;;;;;4.18;2.00;;;21.30;99.90;;;;;;12498830;28;20049;-79
2022/05/19 06:57:52;;;;;;;5.55;2.10;;;21.30;99.90;;;;;;12520526;28;20175;-80
2022/05/19 07:03:54;;;;;;;4.72;2.10;;;21.40;99.90;;;;;;12515948;28;20053;-79
2022/05/19 07:09:56;;;;;;;3.40;1.90;;;21.30;99.90;;;;;;12505750;28;20471;-81
2022/05/19 07:15:59;;;;;;;7.00;2.30;;;21.40;99.90;;;;;;12507621;28;20098;-79
2022/05/19 07:22:04;;;;;;;2.45;1.80;;;21.50;99.90;;;;;;12505391;28;20072;-81
2022/05/19 07:28:07;;;;;;;4.28;2.10;;;21.60;99.90;;;;;;12528981;28;20419;-81
2022/05/19 07:34:11;;;;;;;6.35;2.40;;;21.60;99.90;;;;;;12523339;28;20153;-79
2022/05/19 07:40:14;;;;;;;5.03;2.15;;;21.80;99.90;;;;;;12501461;28;20125;-80
2022/05/19 07:46:16;;;;;;;4.13;2.20;;;21.90;99.90;;;;;;12508697;28;20045;-80
2022/05/19 07:52:18;;;;;;;5.97;2.38;;;22.00;99.90;;;;;;12522054;28;20061;-79
2022/05/19 07:58:20;;;;;;;5.47;2.33;;;22.00;99.90;;;;;;12504723;28;20106;-79
2022/05/19 08:04:25;;;;;;;8.88;2.00;;;22.10;99.90;;;;;;12502231;28;20413;-80
2022/05/19 08:10:27;;;;;;;3.30;2.28;;;22.40;99.90;;;;;;12472804;28;20049;-80
2022/05/19 08:16:28;;;;;;;6.20;2.47;;;22.50;99.90;;;;;;12475158;28;20071;-79
2022/05/19 08:22:30;;;;;;;5.05;2.20;;;22.70;99.90;;;;;;12518078;28;20045;-80
2022/05/19 08:28:32;;;;;;;2.60;1.73;;;22.90;99.90;;;;;;12504979;28;20053;-79
2022/05/19 08:34:34;;;;;;;3.30;2.00;;;23.10;99.90;;;;;;12494396;28;20101;-80
2022/05/19 08:40:55;;;;;;;4.95;2.47;;;23.20;99.90;;;;;;12517884;28;20044;-80
2022/05/19 08:46:59;;;;;;;7.05;2.15;;;23.10;99.90;;;;;;12525301;28;20135;-79
2022/05/19 08:53:02;;;;;;;4.82;2.10;;;23.20;99.90;;;;;;12516237;28;20098;-80
2022/05/19 08:59:35;;;;;;;8.13;2.70;;;23.10;99.90;;;;;;12505395;28;20485;-79
2022/05/19 09:06:00;;;;;;;6.10;2.25;;;23.00;99.90;;;;;;12508597;28;20693;-80
2022/05/19 09:12:10;;;;;;;5.75;2.45;;;23.00;99.90;;;;;;12511380;28;20501;-80
2022/05/19 09:18:14;;;;;;;4.00;2.30;;;23.10;99.90;;;;;;12501387;28;20455;-80
2022/05/19 09:24:16;;;;;;;7.53;2.47;;;23.20;99.90;;;;;;12502252;28;20057;-80
2022/05/19 09:30:37;;;;;;;7.63;2.15;;;23.20;99.90;;;;;;12501538;28;20113;-79
2022/05/19 09:36:54;;;;;;;5.90;2.35;;;23.30;99.90;;;;;;12502544;28;20138;-79
2022/05/19 09:43:09;;;;;;;4.63;2.10;;;23.40;99.90;;;;;;12517775;28;20052;-80
2022/05/19 09:49:37;;;;;;;6.30;2.20;;;23.60;99.90;;;;;;12512127;28;20105;-79
2022/05/19 09:55:39;;;;;;;4.07;2.00;;;23.90;99.90;;;;;;12512073;28;20045;-79
2022/05/19 10:01:45;;;;;;;5.22;1.88;;;24.10;99.90;;;;;;12496901;28;20512;-80
2022/05/19 10:07:49;;;;;;;3.25;1.60;;;24.60;99.90;;;;;;12516974;28;20068;-80
2022/05/19 10:13:56;;;;;;;4.38;1.55;;;25.10;99.90;;;;;;12507172;28;20049;-80
2022/05/19 10:20:10;;;;;;;3.10;1.50;;;25.50;99.90;;;;;;12509700;28;20048;-81
2022/05/19 10:26:37;;;;;;;4.85;1.55;;;25.50;99.90;;;;;;12518730;28;20045;-81
2022/05/19 10:32:53;;;;;;;3.00;1.60;;;25.60;99.90;;;;;;12520315;28;20121;-80
2022/05/19 10:39:33;;;;;;;2.67;1.40;;;25.90;99.90;;;;;;12515746;28;20080;-79
2022/05/19 10:45:41;;;;;;;6.18;1.70;;;26.20;99.90;;;;;;12524402;28;20048;-80
2022/05/19 10:52:08;;;;;;;3.22;1.10;;;26.50;99.90;;;;;;12508351;28;20037;-80
2022/05/19 10:58:16;;;;;;;4.22;1.73;;;26.60;99.90;;;;;;12518127;28;20098;-81
2022/05/19 11:04:40;;;;;;;2.70;1.50;;;26.30;99.90;;;;;;12524028;28;20091;-80
2022/05/19 11:10:45;;;;;;;2.63;1.42;;;26.00;99.90;;;;;;12526893;28;20420;-79
2022/05/19 11:17:02;;;;;;;3.00;1.20;;;25.80;99.90;;;;;;12504568;28;20052;-80
2022/05/19 11:23:18;;;;;;;5.65;1.38;;;26.00;99.90;;;;;;12525284;28;20091;-81
2022/05/19 11:29:29;;;;;;;3.90;1.30;;;26.40;99.90;;;;;;12498846;28;20082;-80
2022/05/19 11:35:46;;;;;;;2.83;1.48;;;26.40;99.90;;;;;;12508788;28;20148;-82
2022/05/19 11:41:50;;;;;;;5.28;1.45;;;26.70;99.90;;;;;;12524834;28;20075;-83
2022/05/19 12:00:52;;;;;;;2.67;1.25;;;27.60;99.90;;;;;;12527865;28;19925;-83
2022/05/19 12:07:22;;;;;;;3.60;1.23;;;27.70;99.90;;;;;;12509912;28;20110;-83
2022/05/19 12:13:32;;;;;;;3.28;1.73;;;27.80;99.90;;;;;;12496760;28;20140;-80
2022/05/19 12:19:54;;;;;;;8.43;1.60;;;27.80;99.90;;;;;;12525283;28;20153;-81
2022/05/19 12:26:01;;;;;;;6.97;1.42;;;28.00;99.90;;;;;;12508202;28;20064;-80
2022/05/19 12:32:19;;;;;;;5.20;1.60;;;28.00;99.90;;;;;;12503624;28;20049;-79
2022/05/19 12:38:43;;;;;;;2.75;1.30;;;28.40;99.90;;;;;;12503968;28;20142;-80
2022/05/19 12:44:54;;;;;;;2.38;1.33;;;28.50;99.90;;;;;;12523208;28;21085;-82
2022/05/19 12:51:12;;;;;;;7.70;1.80;;;28.50;99.90;;;;;;12520087;28;20110;-81
2022/05/19 12:57:13;;;;;;;5.20;1.60;;;28.70;99.90;;;;;;12510396;28;20160;-80
2022/05/19 13:03:17;;;;;;;4.60;1.50;;;29.00;99.90;;;;;;12517235;28;20053;-81
2022/05/19 13:09:27;;;;;;;3.38;1.40;;;29.10;99.90;;;;;;12523012;28;20056;-80
2022/05/19 13:15:45;;;;;;;2.65;1.33;;;29.20;99.90;;;;;;12500919;28;20121;-80
2022/05/19 13:21:58;;;;;;;3.63;1.58;;;29.20;99.90;;;;;;12499205;28;20056;-80
2022/05/19 13:34:41;;;;;;;5.55;1.25;;;29.20;99.90;;;;;;12514943;28;20595;-83
2022/05/19 13:40:44;;;;;;;4.22;1.50;;;28.90;99.90;;;;;;12517253;28;20049;-81
2022/05/19 13:46:45;;;;;;;3.05;1.27;;;28.30;99.90;;;;;;12518007;28;20102;-80
2022/05/19 13:52:54;;;;;;;2.30;1.50;;;27.90;99.90;;;;;;12517492;28;20819;-81
2022/05/19 13:58:57;;;;;;;3.35;1.30;;;27.80;99.90;;;;;;12500003;28;20060;-81
2022/05/19 14:05:01;;;;;;;2.17;1.20;;;27.50;99.90;;;;;;12497777;28;20048;-82
2022/05/19 14:11:03;;;;;;;2.67;1.33;;;27.50;99.90;;;;;;12511095;28;20459;-81
2022/05/19 14:17:05;;;;;;;5.32;1.58;;;27.20;99.90;;;;;;12497713;28;20110;-81
2022/05/19 14:23:12;;;;;;;5.65;1.67;;;26.90;99.90;;;;;;12515202;28;20086;-82
2022/05/19 14:29:22;;;;;;;2.53;1.50;;;26.70;99.90;;;;;;12516568;28;20056;-80
2022/05/19 14:35:36;;;;;;;2.50;1.45;;;26.50;99.90;;;;;;12511513;28;20064;-82
2022/05/19 14:48:32;;;;;;;14.00;1.52;;;25.30;99.90;;;;;;12515322;28;20125;-80
2022/05/19 14:54:40;;;;;;;4.90;1.20;;;23.00;99.90;;;;;;12521636;28;20049;-83
2022/05/19 15:00:41;;;;;;;7.00;1.23;;;21.50;99.90;;;;;;12503625;28;20048;-81
2022/05/19 15:06:45;;;;;;;9.05;1.10;;;20.10;99.90;;;;;;12496359;28;20053;-84
2022/05/19 15:12:47;;;;;;;5.00;1.15;;;19.00;99.90;;;;;;12516326;28;20067;-83
2022/05/19 15:18:50;;;;;;;13.98;1.35;;;18.60;99.90;;;;;;12520777;28;20056;-82
2022/05/19 15:24:54;;;;;;;5.15;1.20;;;18.30;99.90;;;;;;12496619;28;20049;-81
2022/05/19 15:30:56;;;;;;;3.90;1.17;;;18.30;99.90;;;;;;12500618;28;20098;-81
2022/05/19 15:36:58;;;;;;;5.43;1.13;;;18.40;99.90;;;;;;12464473;28;20053;-81
2022/05/19 15:43:01;;;;;;;4.28;1.10;;;18.50;99.90;;;;;;12445703;28;20156;-82
2022/05/19 15:49:03;;;;;;;3.73;1.17;;;18.50;99.90;;;;;;12452624;28;20993;-80
2022/05/19 15:55:07;;;;;;;3.05;1.30;;;18.50;99.90;;;;;;12465976;28;20626;-80
2022/05/19 16:01:10;;;;;;;4.20;1.17;;;18.70;99.90;;;;;;12448605;28;20053;-80
2022/05/19 16:07:15;;;;;;;7.35;1.13;;;18.90;99.90;;;;;;12465183;28;20053;-82
2022/05/19 16:13:17;;;;;;;4.77;1.33;;;19.00;99.90;;;;;;12476268;28;20042;-80
2022/05/19 16:19:23;;;;;;;6.07;1.38;;;19.10;99.90;;;;;;12469016;28;20096;-82
2022/05/19 16:25:29;;;;;;;5.45;1.52;;;19.10;99.90;;;;;;12448330;28;20729;-81
2022/05/19 16:31:31;;;;;;;6.43;1.40;;;19.10;99.90;;;;;;12456005;28;20128;-83
2022/05/19 16:37:33;;;;;;;4.10;1.67;;;19.10;99.90;;;;;;12465629;28;20171;-83
2022/05/19 16:43:35;;;;;;;5.35;1.20;;;18.90;99.90;;;;;;12451562;28;20049;-83
2022/05/19 16:49:39;;;;;;;3.95;1.05;;;18.70;99.90;;;;;;12442159;28;20460;-83
2022/05/19 17:02:03;;;;;;;4.47;1.23;;;18.70;99.90;;;;;;12442114;28;19986;-83
2022/05/19 17:08:08;;;;;;;3.95;0.98;;;18.60;99.90;;;;;;12442822;28;20077;-85
2022/05/19 17:14:11;;;;;;;2.42;1.27;;;18.50;99.90;;;;;;12442242;28;20098;-84
2022/05/19 17:20:14;;;;;;;3.08;1.20;;;18.40;99.90;;;;;;12437552;28;20088;-83
2022/05/19 17:26:18;;;;;;;5.43;1.77;;;18.60;99.90;;;;;;12440877;28;20493;-83
2022/05/19 17:32:21;;;;;;;3.17;1.50;;;18.60;99.90;;;;;;12438645;28;20045;-83
2022/05/19 17:38:26;;;;;;;6.70;1.60;;;18.70;99.90;;;;;;12458314;28;20107;-85
2022/05/19 17:44:29;;;;;;;4.28;1.40;;;18.70;99.90;;;;;;12467082;28;20057;-81
2022/05/19 17:50:31;;;;;;;4.70;1.60;;;18.50;99.90;;;;;;12469920;28;21040;-83
2022/05/19 17:56:33;;;;;;;6.43;1.40;;;18.60;99.90;;;;;;12471138;28;20084;-83
2022/05/19 18:02:35;;;;;;;9.50;1.25;;;18.60;99.90;;;;;;12470931;28;20041;-82
2022/05/19 18:08:36;;;;;;;4.50;1.70;;;18.70;99.90;;;;;;12469702;28;20050;-82
2022/05/19 18:21:01;;;;;;;4.03;1.55;;;18.60;99.90;;;;;;12470235;28;20041;-85
2022/05/19 18:27:05;;;;;;;2.95;1.70;;;18.50;99.90;;;;;;12466300;28;20054;-84
2022/05/19 18:33:07;;;;;;;4.20;1.80;;;18.60;99.90;;;;;;12471693;28;20048;-82
2022/05/19 18:39:09;;;;;;;3.83;2.08;;;18.60;99.90;;;;;;12519142;28;20040;-83
2022/05/19 18:45:11;;;;;;;6.05;2.15;;;18.40;99.90;;;;;;12518783;28;20036;-83
2022/05/19 18:51:13;;;;;;;7.00;2.95;;;18.40;99.90;;;;;;12501455;28;20108;-86
2022/05/19 18:57:19;;;;;;;5.82;2.50;;;18.30;99.90;;;;;;12501877;28;20049;-83
2022/05/19 19:03:21;;;;;;;5.35;2.67;;;18.20;99.90;;;;;;12516666;28;20500;-84
2022/05/19 19:09:23;;;;;;;6.82;2.80;;;18.40;99.90;;;;;;12515888;28;20048;-84
2022/05/19 19:15:28;;;;;;;5.80;2.28;;;18.10;99.90;;;;;;12507798;28;20059;-83
2022/05/19 19:21:42;;;;;;;3.67;2.13;;;18.10;99.90;;;;;;12525997;28;20472;-83
2022/05/19 19:27:44;;;;;;;7.10;2.05;;;18.00;99.90;;;;;;12513196;28;20041;-83
2022/05/19 19:33:46;;;;;;;8.25;2.60;;;17.90;99.90;;;;;;12530339;28;20076;-84
2022/05/19 19:40:11;;;;;;;5.60;2.50;;;18.00;99.90;;;;;;12530461;28;20740;-83
2022/05/19 19:46:13;;;;;;;7.47;2.58;;;17.90;99.90;;;;;;12511332;28;20053;-83
2022/05/19 19:52:15;;;;;;;9.35;2.80;;;17.90;99.90;;;;;;12513820;28;21038;-83
2022/05/19 19:58:20;;;;;;;4.20;2.40;;;17.80;99.90;;;;;;12509235;28;20139;-82
2022/05/19 20:04:23;;;;;;;7.22;2.63;;;17.70;99.90;;;;;;12522174;28;20058;-82
2022/05/19 20:10:25;;;;;;;7.30;2.90;;;17.70;99.90;;;;;;12525783;28;20977;-82
2022/05/19 20:16:28;;;;;;;7.35;3.00;;;17.80;99.90;;;;;;12503650;28;20057;-83
2022/05/19 20:22:31;;;;;;;6.23;2.93;;;17.60;99.90;;;;;;12498654;28;20508;-83
2022/05/19 20:28:33;;;;;;;7.93;2.88;;;17.70;99.90;;;;;;12512247;28;20099;-83
2022/05/19 20:34:35;;;;;;;7.65;4.10;;;17.50;99.90;;;;;;12527446;28;20106;-83
2022/05/19 20:40:38;;;;;;;8.73;3.78;;;17.60;99.90;;;;;;12510227;28;20516;-83
2022/05/19 20:46:40;;;;;;;6.72;4.70;;;17.60;99.90;;;;;;12511664;28;20049;-82
2022/05/19 20:52:42;;;;;;;8.00;4.68;;;17.60;99.90;;;;;;12522323;28;20061;-82
2022/05/19 20:58:43;;;;;;;10.45;5.78;;;17.50;99.90;;;;;;12503446;28;20099;-83
2022/05/19 21:04:46;;;;;;;9.45;6.28;;;17.50;99.90;;;;;;12524375;28;20086;-83
2022/05/19 21:10:53;;;;;;;11.18;6.45;;;17.40;99.90;;;;;;12525751;28;20041;-83
2022/05/19 21:16:55;;;;;;;9.25;6.68;;;17.50;99.90;;;;;;12517600;28;20049;-83
2022/05/19 21:22:56;;;;;;;11.13;7.10;;;17.60;99.90;;;;;;12521611;28;20504;-83
2022/05/19 21:28:58;;;;;;;12.10;7.88;;;17.50;99.90;;;;;;12501281;28;20052;-82
2022/05/19 21:35:00;;;;;;;11.93;7.97;;;17.60;99.90;;;;;;12502496;28;20083;-83
2022/05/19 21:41:04;;;;;;;12.70;8.45;;;17.50;99.90;;;;;;12507274;28;20033;-83
2022/05/19 21:47:06;;;;;;;18.17;9.23;;;17.60;99.90;;;;;;12525147;28;20106;-83
2022/05/19 21:59:29;;;;;;;11.38;9.48;;;17.50;99.90;;;;;;12519231;28;20057;-83
2022/05/19 22:05:34;;;;;;;14.93;9.65;;;17.60;99.90;;;;;;12495687;28;20056;-83
2022/05/19 22:11:36;;;;;;;14.63;10.77;;;17.50;99.90;;;;;;12517876;28;20098;-83
2022/05/19 22:17:39;;;;;;;17.20;11.10;;;17.50;99.90;;;;;;12505616;28;20472;-84
2022/05/19 22:23:41;;;;;;;18.30;12.85;;;17.30;99.90;;;;;;12519776;28;20563;-83
2022/05/19 22:29:46;;;;;;;15.60;13.05;;;17.30;99.90;;;;;;12522845;28;20147;-83
2022/05/19 22:35:48;;;;;;;18.98;14.15;;;17.40;99.90;;;;;;12522619;28;20057;-84
2022/05/19 22:41:50;;;;;;;20.25;14.25;;;17.40;99.90;;;;;;12501665;28;20117;-84
2022/05/19 22:47:52;;;;;;;18.30;13.68;;;17.30;99.90;;;;;;12501569;28;20132;-84
2022/05/19 22:53:54;;;;;;;18.60;14.10;;;17.30;99.90;;;;;;12503846;28;20052;-84
2022/05/19 22:59:56;;;;;;;17.73;14.98;;;17.40;99.90;;;;;;12490150;28;20728;-84
2022/05/19 23:05:58;;;;;;;18.80;14.43;;;17.40;99.90;;;;;;12500522;28;20048;-84
2022/05/19 23:12:01;;;;;;;20.25;14.90;;;17.30;99.90;;;;;;12516493;28;20102;-84
2022/05/19 23:18:03;;;;;;;20.45;14.80;;;17.40;99.90;;;;;;12518650;28;20057;-85
2022/05/19 23:24:07;;;;;;;21.15;15.10;;;17.20;99.90;;;;;;12502719;28;20460;-84
2022/05/19 23:30:10;;;;;;;16.97;13.83;;;17.30;99.90;;;;;;12518198;28;20045;-83
2022/05/19 23:36:15;;;;;;;23.55;15.10;;;17.30;99.90;;;;;;12520526;28;21048;-84
2022/05/19 23:42:18;;;;;;;19.40;14.38;;;17.20;99.90;;;;;;12518499;28;20448;-84
2022/05/19 23:48:21;;;;;;;19.70;14.10;;;17.20;99.90;;;;;;12502700;28;20164;-84
2022/05/19 23:54:23;;;;;;;;;;;17.10;99.90;;;;;;12526775;28;20049;-83
